sensor_id;sensor_type;location;lat;lon;timestamp;P1;durP1;ratioP1;P2;durP2;ratioP2
4835;SDS011;66719;51.226;6.902;2023-05-07T00:00:55;13.20;;;5.17;;
4835;SDS011;66719;51.226;6.902;2023-05-07T00:03:22;14.83;;;5.57;;
4835;SDS011;66719;51.226;6.902;2023-05-07T00:05:48;13.53;;;5.40;;
4835;SDS011;66719;51.226;6.902;2023-05-07T00:08:15;14.67;;;4.90;;
4835;SDS011;66719;51.226;6.902;2023-05-07T00:10:41;13.93;;;5.50;;
4835;SDS011;66719;51.226;6.902;2023-05-07T00:13:08;12.43;;;5.20;;
4835;SDS011;66719;51.226;6.902;2023-05-07T00:15:34;17.40;;;5.33;;
4835;SDS011;66719;51.226;6.902;2023-05-07T00:18:01;16.10;;;6.60;;
4835;SDS011;66719;51.226;6.902;2023-05-07T00:20:28;14.37;;;5.70;;
4835;SDS011;66719;51.226;6.902;2023-05-07T00:22:54;14.17;;;5.60;;
4835;SDS011;66719;51.226;6.902;2023-05-07T00:25:21;12.80;;;5.67;;
4835;SDS011;66719;51.226;6.902;2023-05-07T00:27:47;12.30;;;4.60;;
4835;SDS011;66719;51.226;6.902;2023-05-07T00:30:14;13.80;;;5.10;;
4835;SDS011;66719;51.226;6.902;2023-05-07T00:32:40;12.13;;;5.33;;
4835;SDS011;66719;51.226;6.902;2023-05-07T00:35:07;17.53;;;5.70;;
4835;SDS011;66719;51.226;6.902;2023-05-07T00:37:34;11.83;;;5.13;;
4835;SDS011;66719;51.226;6.902;2023-05-07T00:40:01;19.47;;;5.73;;
4835;SDS011;66719;51.226;6.902;2023-05-07T00:42:30;13.73;;;5.13;;
4835;SDS011;66719;51.226;6.902;2023-05-07T00:44:58;13.90;;;5.10;;
4835;SDS011;66719;51.226;6.902;2023-05-07T00:47:25;12.07;;;4.20;;
4835;SDS011;66719;51.226;6.902;2023-05-07T00:49:52;12.57;;;5.03;;
4835;SDS011;66719;51.226;6.902;2023-05-07T00:52:19;13.17;;;4.80;;
4835;SDS011;66719;51.226;6.902;2023-05-07T00:54:47;12.20;;;5.10;;
4835;SDS011;66719;51.226;6.902;2023-05-07T00:57:14;12.80;;;4.77;;
4835;SDS011;66719;51.226;6.902;2023-05-07T00:59:41;14.93;;;4.57;;
4835;SDS011;66719;51.226;6.902;2023-05-07T01:02:08;11.23;;;4.50;;
4835;SDS011;66719;51.226;6.902;2023-05-07T01:04:34;12.20;;;4.20;;
4835;SDS011;66719;51.226;6.902;2023-05-07T01:07:01;12.13;;;4.63;;
4835;SDS011;66719;51.226;6.902;2023-05-07T01:09:28;11.77;;;4.40;;
4835;SDS011;66719;51.226;6.902;2023-05-07T01:11:55;19.43;;;4.60;;
4835;SDS011;66719;51.226;6.902;2023-05-07T01:14:23;11.27;;;4.23;;
4835;SDS011;66719;51.226;6.902;2023-05-07T01:16:51;11.00;;;3.93;;
4835;SDS011;66719;51.226;6.902;2023-05-07T01:19:19;12.93;;;4.23;;
4835;SDS011;66719;51.226;6.902;2023-05-07T01:21:46;10.50;;;3.93;;
4835;SDS011;66719;51.226;6.902;2023-05-07T01:24:14;11.70;;;3.83;;
4835;SDS011;66719;51.226;6.902;2023-05-07T01:26:42;17.53;;;4.30;;
4835;SDS011;66719;51.226;6.902;2023-05-07T01:29:09;13.70;;;4.67;;
4835;SDS011;66719;51.226;6.902;2023-05-07T01:31:36;11.73;;;4.07;;
4835;SDS011;66719;51.226;6.902;2023-05-07T01:34:03;14.80;;;3.90;;
4835;SDS011;66719;51.226;6.902;2023-05-07T01:36:32;10.97;;;3.77;;
4835;SDS011;66719;51.226;6.902;2023-05-07T01:39:00;12.43;;;4.20;;
4835;SDS011;66719;51.226;6.902;2023-05-07T01:41:28;10.10;;;3.37;;
4835;SDS011;66719;51.226;6.902;2023-05-07T01:43:54;13.60;;;4.00;;
4835;SDS011;66719;51.226;6.902;2023-05-07T01:46:23;9.70;;;3.50;;
4835;SDS011;66719;51.226;6.902;2023-05-07T01:48:52;14.13;;;3.53;;
4835;SDS011;66719;51.226;6.902;2023-05-07T01:51:20;10.60;;;4.07;;
4835;SDS011;66719;51.226;6.902;2023-05-07T01:53:48;10.67;;;3.63;;
4835;SDS011;66719;51.226;6.902;2023-05-07T01:56:17;11.70;;;4.00;;
4835;SDS011;66719;51.226;6.902;2023-05-07T01:58:47;11.57;;;4.37;;
4835;SDS011;66719;51.226;6.902;2023-05-07T02:01:14;13.60;;;5.03;;
4835;SDS011;66719;51.226;6.902;2023-05-07T02:03:40;12.23;;;4.90;;
4835;SDS011;66719;51.226;6.902;2023-05-07T02:06:08;13.60;;;5.20;;
4835;SDS011;66719;51.226;6.902;2023-05-07T02:08:34;10.30;;;3.73;;
4835;SDS011;66719;51.226;6.902;2023-05-07T02:11:01;11.63;;;3.97;;
4835;SDS011;66719;51.226;6.902;2023-05-07T02:13:29;12.37;;;3.90;;
4835;SDS011;66719;51.226;6.902;2023-05-07T02:15:56;9.43;;;3.10;;
4835;SDS011;66719;51.226;6.902;2023-05-07T02:18:23;10.97;;;3.50;;
4835;SDS011;66719;51.226;6.902;2023-05-07T02:20:50;10.03;;;3.77;;
4835;SDS011;66719;51.226;6.902;2023-05-07T02:23:16;11.73;;;3.63;;
4835;SDS011;66719;51.226;6.902;2023-05-07T02:25:43;9.63;;;3.60;;
4835;SDS011;66719;51.226;6.902;2023-05-07T02:28:09;12.60;;;3.63;;
4835;SDS011;66719;51.226;6.902;2023-05-07T02:30:36;12.07;;;3.50;;
4835;SDS011;66719;51.226;6.902;2023-05-07T02:33:03;13.93;;;3.37;;
4835;SDS011;66719;51.226;6.902;2023-05-07T02:35:30;10.30;;;3.50;;
4835;SDS011;66719;51.226;6.902;2023-05-07T02:37:56;11.07;;;2.87;;
4835;SDS011;66719;51.226;6.902;2023-05-07T02:40:23;10.47;;;3.70;;
4835;SDS011;66719;51.226;6.902;2023-05-07T02:42:49;14.07;;;3.73;;
4835;SDS011;66719;51.226;6.902;2023-05-07T02:45:16;12.40;;;3.47;;
4835;SDS011;66719;51.226;6.902;2023-05-07T02:47:42;10.20;;;2.97;;
4835;SDS011;66719;51.226;6.902;2023-05-07T02:50:09;10.00;;;3.37;;
4835;SDS011;66719;51.226;6.902;2023-05-07T02:52:36;15.70;;;3.37;;
4835;SDS011;66719;51.226;6.902;2023-05-07T02:55:02;13.03;;;2.80;;
4835;SDS011;66719;51.226;6.902;2023-05-07T02:57:29;12.50;;;3.03;;
4835;SDS011;66719;51.226;6.902;2023-05-07T02:59:57;10.67;;;3.20;;
4835;SDS011;66719;51.226;6.902;2023-05-07T03:02:24;9.57;;;3.10;;
4835;SDS011;66719;51.226;6.902;2023-05-07T03:04:50;8.97;;;3.10;;
4835;SDS011;66719;51.226;6.902;2023-05-07T03:07:17;10.57;;;2.90;;
4835;SDS011;66719;51.226;6.902;2023-05-07T03:09:44;12.50;;;2.60;;
4835;SDS011;66719;51.226;6.902;2023-05-07T03:12:11;11.10;;;2.97;;
4835;SDS011;66719;51.226;6.902;2023-05-07T03:14:37;10.63;;;2.90;;
4835;SDS011;66719;51.226;6.902;2023-05-07T03:17:04;11.83;;;2.93;;
4835;SDS011;66719;51.226;6.902;2023-05-07T03:19:30;9.30;;;2.57;;
4835;SDS011;66719;51.226;6.902;2023-05-07T03:21:57;11.17;;;2.97;;
4835;SDS011;66719;51.226;6.902;2023-05-07T03:24:23;10.30;;;2.60;;
4835;SDS011;66719;51.226;6.902;2023-05-07T03:26:50;11.23;;;3.10;;
4835;SDS011;66719;51.226;6.902;2023-05-07T03:29:16;10.60;;;2.30;;
4835;SDS011;66719;51.226;6.902;2023-05-07T03:31:43;8.80;;;2.50;;
4835;SDS011;66719;51.226;6.902;2023-05-07T03:34:09;19.40;;;2.50;;
4835;SDS011;66719;51.226;6.902;2023-05-07T03:36:36;12.93;;;2.77;;
4835;SDS011;66719;51.226;6.902;2023-05-07T03:39:02;12.33;;;2.97;;
4835;SDS011;66719;51.226;6.902;2023-05-07T03:41:29;10.83;;;2.80;;
4835;SDS011;66719;51.226;6.902;2023-05-07T03:43:56;10.17;;;2.63;;
4835;SDS011;66719;51.226;6.902;2023-05-07T03:46:22;11.47;;;3.33;;
4835;SDS011;66719;51.226;6.902;2023-05-07T03:48:49;12.73;;;2.63;;
4835;SDS011;66719;51.226;6.902;2023-05-07T03:51:15;10.53;;;2.50;;
4835;SDS011;66719;51.226;6.902;2023-05-07T03:53:42;10.97;;;3.00;;
4835;SDS011;66719;51.226;6.902;2023-05-07T03:56:08;9.90;;;2.97;;
4835;SDS011;66719;51.226;6.902;2023-05-07T03:58:34;12.30;;;2.63;;
4835;SDS011;66719;51.226;6.902;2023-05-07T04:01:01;10.60;;;2.80;;
4835;SDS011;66719;51.226;6.902;2023-05-07T04:03:28;9.30;;;2.67;;
4835;SDS011;66719;51.226;6.902;2023-05-07T04:05:55;11.53;;;2.60;;
4835;SDS011;66719;51.226;6.902;2023-05-07T04:08:22;12.53;;;3.07;;
4835;SDS011;66719;51.226;6.902;2023-05-07T04:10:53;10.50;;;2.50;;
4835;SDS011;66719;51.226;6.902;2023-05-07T04:13:24;9.27;;;2.50;;
4835;SDS011;66719;51.226;6.902;2023-05-07T04:15:52;11.97;;;3.00;;
4835;SDS011;66719;51.226;6.902;2023-05-07T04:18:19;11.50;;;2.57;;
4835;SDS011;66719;51.226;6.902;2023-05-07T04:20:46;9.93;;;2.57;;
4835;SDS011;66719;51.226;6.902;2023-05-07T04:23:13;9.10;;;2.70;;
4835;SDS011;66719;51.226;6.902;2023-05-07T04:25:39;13.37;;;3.00;;
4835;SDS011;66719;51.226;6.902;2023-05-07T04:28:06;13.30;;;3.17;;
4835;SDS011;66719;51.226;6.902;2023-05-07T04:30:32;10.30;;;2.30;;
4835;SDS011;66719;51.226;6.902;2023-05-07T04:32:59;13.20;;;2.80;;
4835;SDS011;66719;51.226;6.902;2023-05-07T04:35:26;8.83;;;2.10;;
4835;SDS011;66719;51.226;6.902;2023-05-07T04:37:52;8.80;;;2.50;;
4835;SDS011;66719;51.226;6.902;2023-05-07T04:40:19;17.10;;;3.17;;
4835;SDS011;66719;51.226;6.902;2023-05-07T04:42:46;10.00;;;2.30;;
4835;SDS011;66719;51.226;6.902;2023-05-07T04:45:12;12.13;;;2.80;;
4835;SDS011;66719;51.226;6.902;2023-05-07T04:47:39;10.47;;;2.37;;
4835;SDS011;66719;51.226;6.902;2023-05-07T04:50:08;10.40;;;2.70;;
4835;SDS011;66719;51.226;6.902;2023-05-07T04:52:36;11.63;;;2.40;;
4835;SDS011;66719;51.226;6.902;2023-05-07T04:55:02;8.70;;;2.60;;
4835;SDS011;66719;51.226;6.902;2023-05-07T04:57:29;8.73;;;2.50;;
4835;SDS011;66719;51.226;6.902;2023-05-07T04:59:55;11.83;;;2.70;;
4835;SDS011;66719;51.226;6.902;2023-05-07T05:02:22;13.93;;;2.80;;
4835;SDS011;66719;51.226;6.902;2023-05-07T05:04:48;10.50;;;2.57;;
4835;SDS011;66719;51.226;6.902;2023-05-07T05:07:15;8.50;;;2.20;;
4835;SDS011;66719;51.226;6.902;2023-05-07T05:09:41;9.50;;;2.60;;
4835;SDS011;66719;51.226;6.902;2023-05-07T05:12:07;8.53;;;2.60;;
4835;SDS011;66719;51.226;6.902;2023-05-07T05:14:35;9.17;;;2.87;;
4835;SDS011;66719;51.226;6.902;2023-05-07T05:17:02;10.57;;;2.43;;
4835;SDS011;66719;51.226;6.902;2023-05-07T05:19:28;10.03;;;2.60;;
4835;SDS011;66719;51.226;6.902;2023-05-07T05:21:54;8.20;;;2.53;;
4835;SDS011;66719;51.226;6.902;2023-05-07T05:24:21;10.83;;;2.20;;
4835;SDS011;66719;51.226;6.902;2023-05-07T05:26:47;8.67;;;2.40;;
4835;SDS011;66719;51.226;6.902;2023-05-07T05:29:14;8.80;;;2.60;;
4835;SDS011;66719;51.226;6.902;2023-05-07T05:31:40;11.00;;;2.60;;
4835;SDS011;66719;51.226;6.902;2023-05-07T05:34:08;11.13;;;2.47;;
4835;SDS011;66719;51.226;6.902;2023-05-07T05:36:34;13.40;;;3.03;;
4835;SDS011;66719;51.226;6.902;2023-05-07T05:39:00;7.80;;;2.23;;
4835;SDS011;66719;51.226;6.902;2023-05-07T05:41:27;8.97;;;2.30;;
4835;SDS011;66719;51.226;6.902;2023-05-07T05:43:53;8.40;;;2.60;;
4835;SDS011;66719;51.226;6.902;2023-05-07T05:46:20;9.53;;;2.50;;
4835;SDS011;66719;51.226;6.902;2023-05-07T05:48:46;10.30;;;2.47;;
4835;SDS011;66719;51.226;6.902;2023-05-07T05:51:13;10.77;;;2.83;;
4835;SDS011;66719;51.226;6.902;2023-05-07T05:53:39;10.87;;;2.63;;
4835;SDS011;66719;51.226;6.902;2023-05-07T05:56:06;10.17;;;2.47;;
4835;SDS011;66719;51.226;6.902;2023-05-07T05:58:32;9.10;;;2.60;;
4835;SDS011;66719;51.226;6.902;2023-05-07T06:00:59;9.00;;;2.40;;
4835;SDS011;66719;51.226;6.902;2023-05-07T06:03:26;9.23;;;2.40;;
4835;SDS011;66719;51.226;6.902;2023-05-07T06:05:52;10.70;;;2.73;;
4835;SDS011;66719;51.226;6.902;2023-05-07T06:08:19;8.10;;;2.37;;
4835;SDS011;66719;51.226;6.902;2023-05-07T06:10:45;10.10;;;2.90;;
4835;SDS011;66719;51.226;6.902;2023-05-07T06:13:12;10.83;;;2.70;;
4835;SDS011;66719;51.226;6.902;2023-05-07T06:15:39;9.63;;;2.33;;
4835;SDS011;66719;51.226;6.902;2023-05-07T06:18:05;8.57;;;2.50;;
4835;SDS011;66719;51.226;6.902;2023-05-07T06:20:32;10.57;;;4.10;;
4835;SDS011;66719;51.226;6.902;2023-05-07T06:22:58;17.20;;;6.30;;
4835;SDS011;66719;51.226;6.902;2023-05-07T06:25:25;11.10;;;2.97;;
4835;SDS011;66719;51.226;6.902;2023-05-07T06:27:51;11.50;;;2.77;;
4835;SDS011;66719;51.226;6.902;2023-05-07T06:30:18;8.50;;;2.53;;
4835;SDS011;66719;51.226;6.902;2023-05-07T06:32:44;9.50;;;2.50;;
4835;SDS011;66719;51.226;6.902;2023-05-07T06:35:11;9.03;;;2.50;;
4835;SDS011;66719;51.226;6.902;2023-05-07T06:37:37;11.20;;;2.67;;
4835;SDS011;66719;51.226;6.902;2023-05-07T06:40:05;10.47;;;2.07;;
4835;SDS011;66719;51.226;6.902;2023-05-07T06:42:33;8.50;;;2.40;;
4835;SDS011;66719;51.226;6.902;2023-05-07T06:45:00;10.63;;;2.93;;
4835;SDS011;66719;51.226;6.902;2023-05-07T06:47:27;13.43;;;5.60;;
4835;SDS011;66719;51.226;6.902;2023-05-07T06:49:53;11.60;;;3.97;;
4835;SDS011;66719;51.226;6.902;2023-05-07T06:52:20;10.53;;;2.40;;
4835;SDS011;66719;51.226;6.902;2023-05-07T06:54:47;9.83;;;3.30;;
4835;SDS011;66719;51.226;6.902;2023-05-07T06:57:13;9.50;;;2.53;;
4835;SDS011;66719;51.226;6.902;2023-05-07T06:59:40;9.37;;;2.43;;
4835;SDS011;66719;51.226;6.902;2023-05-07T07:02:06;11.10;;;2.27;;
4835;SDS011;66719;51.226;6.902;2023-05-07T07:04:33;9.30;;;2.37;;
4835;SDS011;66719;51.226;6.902;2023-05-07T07:06:59;11.57;;;2.80;;
4835;SDS011;66719;51.226;6.902;2023-05-07T07:09:26;11.57;;;2.93;;
4835;SDS011;66719;51.226;6.902;2023-05-07T07:11:52;8.83;;;2.53;;
4835;SDS011;66719;51.226;6.902;2023-05-07T07:14:19;8.93;;;2.27;;
4835;SDS011;66719;51.226;6.902;2023-05-07T07:16:46;9.37;;;2.77;;
4835;SDS011;66719;51.226;6.902;2023-05-07T07:19:13;14.23;;;2.70;;
4835;SDS011;66719;51.226;6.902;2023-05-07T07:21:41;11.80;;;4.23;;
4835;SDS011;66719;51.226;6.902;2023-05-07T07:24:08;17.47;;;7.53;;
4835;SDS011;66719;51.226;6.902;2023-05-07T07:26:34;14.90;;;4.67;;
4835;SDS011;66719;51.226;6.902;2023-05-07T07:29:01;9.10;;;2.67;;
4835;SDS011;66719;51.226;6.902;2023-05-07T07:31:27;11.83;;;2.87;;
4835;SDS011;66719;51.226;6.902;2023-05-07T07:33:54;9.07;;;2.23;;
4835;SDS011;66719;51.226;6.902;2023-05-07T07:36:20;11.30;;;2.47;;
4835;SDS011;66719;51.226;6.902;2023-05-07T07:38:48;9.43;;;2.60;;
4835;SDS011;66719;51.226;6.902;2023-05-07T07:41:15;11.20;;;2.67;;
4835;SDS011;66719;51.226;6.902;2023-05-07T07:43:41;11.93;;;2.60;;
4835;SDS011;66719;51.226;6.902;2023-05-07T07:46:08;11.30;;;2.40;;
4835;SDS011;66719;51.226;6.902;2023-05-07T07:48:35;8.87;;;2.67;;
4835;SDS011;66719;51.226;6.902;2023-05-07T07:51:01;12.73;;;3.20;;
4835;SDS011;66719;51.226;6.902;2023-05-07T07:53:27;8.90;;;2.47;;
4835;SDS011;66719;51.226;6.902;2023-05-07T07:55:54;9.90;;;2.33;;
4835;SDS011;66719;51.226;6.902;2023-05-07T07:58:24;9.00;;;1.93;;
4835;SDS011;66719;51.226;6.902;2023-05-07T08:00:51;9.97;;;1.83;;
4835;SDS011;66719;51.226;6.902;2023-05-07T08:03:17;10.20;;;2.83;;
4835;SDS011;66719;51.226;6.902;2023-05-07T08:05:45;9.67;;;2.50;;
4835;SDS011;66719;51.226;6.902;2023-05-07T08:08:12;9.13;;;2.40;;
4835;SDS011;66719;51.226;6.902;2023-05-07T08:10:39;11.47;;;2.50;;
4835;SDS011;66719;51.226;6.902;2023-05-07T08:13:05;8.70;;;2.43;;
4835;SDS011;66719;51.226;6.902;2023-05-07T08:15:32;10.07;;;2.27;;
4835;SDS011;66719;51.226;6.902;2023-05-07T08:17:58;9.57;;;2.23;;
4835;SDS011;66719;51.226;6.902;2023-05-07T08:20:26;8.20;;;2.40;;
4835;SDS011;66719;51.226;6.902;2023-05-07T08:22:53;8.77;;;2.20;;
4835;SDS011;66719;51.226;6.902;2023-05-07T08:25:19;8.53;;;1.93;;
4835;SDS011;66719;51.226;6.902;2023-05-07T08:27:46;9.70;;;2.80;;
4835;SDS011;66719;51.226;6.902;2023-05-07T08:30:12;16.53;;;4.87;;
4835;SDS011;66719;51.226;6.902;2023-05-07T08:32:39;14.30;;;2.93;;
4835;SDS011;66719;51.226;6.902;2023-05-07T08:35:06;8.47;;;2.10;;
4835;SDS011;66719;51.226;6.902;2023-05-07T08:37:33;10.97;;;2.60;;
4835;SDS011;66719;51.226;6.902;2023-05-07T08:39:59;18.63;;;8.33;;
4835;SDS011;66719;51.226;6.902;2023-05-07T08:42:26;12.83;;;3.83;;
4835;SDS011;66719;51.226;6.902;2023-05-07T08:44:56;14.60;;;3.33;;
4835;SDS011;66719;51.226;6.902;2023-05-07T08:47:23;12.07;;;2.60;;
4835;SDS011;66719;51.226;6.902;2023-05-07T08:49:55;8.57;;;1.90;;
4835;SDS011;66719;51.226;6.902;2023-05-07T08:52:21;9.60;;;2.67;;
4835;SDS011;66719;51.226;6.902;2023-05-07T08:54:48;8.73;;;2.17;;
4835;SDS011;66719;51.226;6.902;2023-05-07T08:57:14;7.80;;;2.00;;
4835;SDS011;66719;51.226;6.902;2023-05-07T08:59:41;9.70;;;2.50;;
4835;SDS011;66719;51.226;6.902;2023-05-07T09:02:09;12.87;;;2.70;;
4835;SDS011;66719;51.226;6.902;2023-05-07T09:04:36;9.07;;;2.23;;
4835;SDS011;66719;51.226;6.902;2023-05-07T09:07:04;8.97;;;2.23;;
4835;SDS011;66719;51.226;6.902;2023-05-07T09:09:34;8.73;;;2.37;;
4835;SDS011;66719;51.226;6.902;2023-05-07T09:12:01;8.83;;;1.97;;
4835;SDS011;66719;51.226;6.902;2023-05-07T09:14:28;8.73;;;2.20;;
4835;SDS011;66719;51.226;6.902;2023-05-07T09:16:54;11.20;;;2.10;;
4835;SDS011;66719;51.226;6.902;2023-05-07T09:19:24;8.00;;;1.77;;
4835;SDS011;66719;51.226;6.902;2023-05-07T09:22:02;9.53;;;2.30;;
4835;SDS011;66719;51.226;6.902;2023-05-07T09:24:30;8.60;;;2.27;;
4835;SDS011;66719;51.226;6.902;2023-05-07T09:27:01;10.00;;;3.03;;
4835;SDS011;66719;51.226;6.902;2023-05-07T09:29:28;8.63;;;2.20;;
4835;SDS011;66719;51.226;6.902;2023-05-07T09:31:56;10.60;;;2.00;;
4835;SDS011;66719;51.226;6.902;2023-05-07T09:34:22;9.13;;;2.00;;
4835;SDS011;66719;51.226;6.902;2023-05-07T09:36:49;9.90;;;3.10;;
4835;SDS011;66719;51.226;6.902;2023-05-07T09:39:15;14.53;;;4.00;;
4835;SDS011;66719;51.226;6.902;2023-05-07T09:41:48;10.30;;;2.87;;
4835;SDS011;66719;51.226;6.902;2023-05-07T09:44:20;9.03;;;2.30;;
4835;SDS011;66719;51.226;6.902;2023-05-07T09:46:50;8.40;;;2.10;;
4835;SDS011;66719;51.226;6.902;2023-05-07T09:49:22;11.17;;;2.50;;
4835;SDS011;66719;51.226;6.902;2023-05-07T09:51:50;9.10;;;2.20;;
4835;SDS011;66719;51.226;6.902;2023-05-07T09:54:17;11.70;;;2.00;;
4835;SDS011;66719;51.226;6.902;2023-05-07T09:56:45;9.30;;;2.17;;
4835;SDS011;66719;51.226;6.902;2023-05-07T09:59:12;11.00;;;2.07;;
4835;SDS011;66719;51.226;6.902;2023-05-07T10:01:41;8.80;;;2.27;;
4835;SDS011;66719;51.226;6.902;2023-05-07T10:04:09;9.17;;;2.10;;
4835;SDS011;66719;51.226;6.902;2023-05-07T10:06:37;9.10;;;2.17;;
4835;SDS011;66719;51.226;6.902;2023-05-07T10:09:04;8.87;;;2.00;;
4835;SDS011;66719;51.226;6.902;2023-05-07T10:11:32;9.97;;;1.87;;
4835;SDS011;66719;51.226;6.902;2023-05-07T10:14:02;9.10;;;2.40;;
4835;SDS011;66719;51.226;6.902;2023-05-07T10:16:32;9.37;;;2.10;;
4835;SDS011;66719;51.226;6.902;2023-05-07T10:19:03;8.27;;;2.03;;
4835;SDS011;66719;51.226;6.902;2023-05-07T10:21:30;12.73;;;2.20;;
4835;SDS011;66719;51.226;6.902;2023-05-07T10:24:19;9.40;;;2.00;;
4835;SDS011;66719;51.226;6.902;2023-05-07T10:26:50;8.83;;;2.20;;
4835;SDS011;66719;51.226;6.902;2023-05-07T10:29:21;9.60;;;2.23;;
4835;SDS011;66719;51.226;6.902;2023-05-07T10:32:09;8.93;;;2.20;;
4835;SDS011;66719;51.226;6.902;2023-05-07T10:34:40;9.63;;;2.20;;
4835;SDS011;66719;51.226;6.902;2023-05-07T10:37:09;8.17;;;1.77;;
4835;SDS011;66719;51.226;6.902;2023-05-07T10:39:37;11.40;;;2.97;;
4835;SDS011;66719;51.226;6.902;2023-05-07T10:42:10;10.50;;;3.30;;
4835;SDS011;66719;51.226;6.902;2023-05-07T10:44:37;9.17;;;2.10;;
4835;SDS011;66719;51.226;6.902;2023-05-07T10:47:05;14.20;;;3.10;;
4835;SDS011;66719;51.226;6.902;2023-05-07T10:52:21;9.50;;;3.20;;
4835;SDS011;66719;51.226;6.902;2023-05-07T10:55:18;8.80;;;1.80;;
4835;SDS011;66719;51.226;6.902;2023-05-07T10:57:46;8.03;;;2.00;;
4835;SDS011;66719;51.226;6.902;2023-05-07T11:03:04;8.20;;;2.20;;
4835;SDS011;66719;51.226;6.902;2023-05-07T11:05:33;7.73;;;1.90;;
4835;SDS011;66719;51.226;6.902;2023-05-07T11:08:04;9.90;;;2.10;;
4835;SDS011;66719;51.226;6.902;2023-05-07T11:10:50;8.90;;;2.00;;
4835;SDS011;66719;51.226;6.902;2023-05-07T11:16:20;8.10;;;1.90;;
4835;SDS011;66719;51.226;6.902;2023-05-07T11:18:52;13.07;;;2.47;;
4835;SDS011;66719;51.226;6.902;2023-05-07T11:21:33;8.73;;;2.13;;
4835;SDS011;66719;51.226;6.902;2023-05-07T11:24:01;12.30;;;2.20;;
4835;SDS011;66719;51.226;6.902;2023-05-07T11:26:30;9.33;;;2.43;;
4835;SDS011;66719;51.226;6.902;2023-05-07T11:29:12;11.83;;;2.57;;
4835;SDS011;66719;51.226;6.902;2023-05-07T11:31:53;8.60;;;1.97;;
4835;SDS011;66719;51.226;6.902;2023-05-07T11:34:21;8.47;;;2.10;;
4835;SDS011;66719;51.226;6.902;2023-05-07T11:36:50;7.93;;;1.60;;
4835;SDS011;66719;51.226;6.902;2023-05-07T11:39:23;8.27;;;1.80;;
4835;SDS011;66719;51.226;6.902;2023-05-07T11:41:59;7.97;;;2.03;;
4835;SDS011;66719;51.226;6.902;2023-05-07T11:44:39;8.33;;;1.50;;
4835;SDS011;66719;51.226;6.902;2023-05-07T11:47:10;10.47;;;1.93;;
4835;SDS011;66719;51.226;6.902;2023-05-07T11:49:37;8.83;;;2.10;;
4835;SDS011;66719;51.226;6.902;2023-05-07T11:52:03;12.13;;;2.30;;
4835;SDS011;66719;51.226;6.902;2023-05-07T11:54:35;9.80;;;1.90;;
4835;SDS011;66719;51.226;6.902;2023-05-07T11:57:03;8.50;;;2.00;;
4835;SDS011;66719;51.226;6.902;2023-05-07T11:59:29;10.50;;;1.73;;
4835;SDS011;66719;51.226;6.902;2023-05-07T12:01:57;15.70;;;2.77;;
4835;SDS011;66719;51.226;6.902;2023-05-07T12:04:24;18.37;;;7.43;;
4835;SDS011;66719;51.226;6.902;2023-05-07T12:06:53;21.03;;;10.97;;
4835;SDS011;66719;51.226;6.902;2023-05-07T12:09:21;11.57;;;2.70;;
4835;SDS011;66719;51.226;6.902;2023-05-07T12:11:48;9.10;;;1.60;;
4835;SDS011;66719;51.226;6.902;2023-05-07T12:14:15;10.70;;;2.40;;
4835;SDS011;66719;51.226;6.902;2023-05-07T12:16:44;8.13;;;2.03;;
4835;SDS011;66719;51.226;6.902;2023-05-07T12:19:11;9.00;;;1.97;;
4835;SDS011;66719;51.226;6.902;2023-05-07T12:21:41;8.17;;;1.50;;
4835;SDS011;66719;51.226;6.902;2023-05-07T12:24:07;9.17;;;2.10;;
4835;SDS011;66719;51.226;6.902;2023-05-07T12:26:37;8.30;;;1.97;;
4835;SDS011;66719;51.226;6.902;2023-05-07T12:29:05;10.33;;;2.20;;
4835;SDS011;66719;51.226;6.902;2023-05-07T12:31:31;8.50;;;1.73;;
4835;SDS011;66719;51.226;6.902;2023-05-07T12:33:58;8.70;;;1.93;;
4835;SDS011;66719;51.226;6.902;2023-05-07T12:36:25;10.40;;;2.17;;
4835;SDS011;66719;51.226;6.902;2023-05-07T12:38:52;13.40;;;2.00;;
4835;SDS011;66719;51.226;6.902;2023-05-07T12:41:20;8.70;;;1.73;;
4835;SDS011;66719;51.226;6.902;2023-05-07T12:43:51;10.87;;;2.47;;
4835;SDS011;66719;51.226;6.902;2023-05-07T12:46:22;7.67;;;1.73;;
4835;SDS011;66719;51.226;6.902;2023-05-07T12:48:49;8.73;;;2.27;;
4835;SDS011;66719;51.226;6.902;2023-05-07T12:51:16;10.93;;;3.27;;
4835;SDS011;66719;51.226;6.902;2023-05-07T12:53:43;10.57;;;2.70;;
4835;SDS011;66719;51.226;6.902;2023-05-07T12:56:09;10.30;;;2.43;;
4835;SDS011;66719;51.226;6.902;2023-05-07T12:58:36;8.60;;;2.03;;
4835;SDS011;66719;51.226;6.902;2023-05-07T13:01:06;13.40;;;2.80;;
4835;SDS011;66719;51.226;6.902;2023-05-07T13:03:36;12.43;;;2.43;;
4835;SDS011;66719;51.226;6.902;2023-05-07T13:06:06;10.83;;;2.37;;
4835;SDS011;66719;51.226;6.902;2023-05-07T13:08:37;8.47;;;2.10;;
4835;SDS011;66719;51.226;6.902;2023-05-07T13:11:07;9.17;;;2.43;;
4835;SDS011;66719;51.226;6.902;2023-05-07T13:13:34;8.83;;;2.23;;
4835;SDS011;66719;51.226;6.902;2023-05-07T13:16:02;9.17;;;2.40;;
4835;SDS011;66719;51.226;6.902;2023-05-07T13:18:29;10.57;;;2.90;;
4835;SDS011;66719;51.226;6.902;2023-05-07T13:20:57;9.97;;;2.50;;
4835;SDS011;66719;51.226;6.902;2023-05-07T13:23:24;11.23;;;2.50;;
4835;SDS011;66719;51.226;6.902;2023-05-07T13:25:51;13.53;;;2.80;;
4835;SDS011;66719;51.226;6.902;2023-05-07T13:28:20;17.53;;;7.83;;
4835;SDS011;66719;51.226;6.902;2023-05-07T13:30:46;18.73;;;9.30;;
4835;SDS011;66719;51.226;6.902;2023-05-07T13:33:13;12.87;;;4.97;;
4835;SDS011;66719;51.226;6.902;2023-05-07T13:35:40;10.57;;;2.93;;
4835;SDS011;66719;51.226;6.902;2023-05-07T13:38:06;8.80;;;3.00;;
4835;SDS011;66719;51.226;6.902;2023-05-07T13:40:33;10.87;;;2.40;;
4835;SDS011;66719;51.226;6.902;2023-05-07T13:43:00;9.23;;;2.60;;
4835;SDS011;66719;51.226;6.902;2023-05-07T13:45:28;11.53;;;2.80;;
4835;SDS011;66719;51.226;6.902;2023-05-07T13:47:58;11.43;;;2.80;;
4835;SDS011;66719;51.226;6.902;2023-05-07T13:50:24;16.40;;;4.37;;
4835;SDS011;66719;51.226;6.902;2023-05-07T13:52:53;19.03;;;4.30;;
4835;SDS011;66719;51.226;6.902;2023-05-07T13:55:23;10.70;;;3.37;;
4835;SDS011;66719;51.226;6.902;2023-05-07T13:57:55;19.63;;;4.93;;
4835;SDS011;66719;51.226;6.902;2023-05-07T14:00:23;18.43;;;5.13;;
4835;SDS011;66719;51.226;6.902;2023-05-07T14:02:51;15.70;;;4.57;;
4835;SDS011;66719;51.226;6.902;2023-05-07T14:05:17;15.13;;;4.60;;
4835;SDS011;66719;51.226;6.902;2023-05-07T14:07:44;17.03;;;5.50;;
4835;SDS011;66719;51.226;6.902;2023-05-07T14:10:11;12.13;;;4.53;;
4835;SDS011;66719;51.226;6.902;2023-05-07T14:12:38;19.73;;;5.90;;
4835;SDS011;66719;51.226;6.902;2023-05-07T14:15:05;14.33;;;5.30;;
4835;SDS011;66719;51.226;6.902;2023-05-07T14:17:31;24.77;;;7.00;;
4835;SDS011;66719;51.226;6.902;2023-05-07T14:19:58;21.60;;;7.17;;
4835;SDS011;66719;51.226;6.902;2023-05-07T14:22:24;30.57;;;11.20;;
4835;SDS011;66719;51.226;6.902;2023-05-07T14:24:51;76.17;;;44.03;;
4835;SDS011;66719;51.226;6.902;2023-05-07T14:27:31;39.57;;;12.17;;
4835;SDS011;66719;51.226;6.902;2023-05-07T14:29:58;25.90;;;8.97;;
4835;SDS011;66719;51.226;6.902;2023-05-07T14:32:25;25.57;;;8.13;;
4835;SDS011;66719;51.226;6.902;2023-05-07T14:34:51;26.50;;;8.27;;
4835;SDS011;66719;51.226;6.902;2023-05-07T14:37:18;20.73;;;8.70;;
4835;SDS011;66719;51.226;6.902;2023-05-07T14:39:46;29.00;;;7.80;;
4835;SDS011;66719;51.226;6.902;2023-05-07T14:42:15;16.67;;;7.50;;
4835;SDS011;66719;51.226;6.902;2023-05-07T14:44:41;19.10;;;7.30;;
4835;SDS011;66719;51.226;6.902;2023-05-07T14:47:08;17.10;;;8.50;;
4835;SDS011;66719;51.226;6.902;2023-05-07T14:49:34;18.63;;;9.20;;
4835;SDS011;66719;51.226;6.902;2023-05-07T14:52:01;20.30;;;8.37;;
4835;SDS011;66719;51.226;6.902;2023-05-07T14:54:28;18.90;;;8.50;;
4835;SDS011;66719;51.226;6.902;2023-05-07T14:56:54;15.83;;;7.27;;
4835;SDS011;66719;51.226;6.902;2023-05-07T14:59:22;17.47;;;9.10;;
4835;SDS011;66719;51.226;6.902;2023-05-07T15:01:51;23.33;;;9.17;;
4835;SDS011;66719;51.226;6.902;2023-05-07T15:04:17;17.43;;;7.23;;